createdAt,value
2018-08-20T00:00:48.102Z,20.40
2018-08-20T00:03:22.636Z,20.29
2018-08-20T00:05:57.496Z,20.17
2018-08-20T00:08:42.517Z,20.10
2018-08-20T00:11:20.065Z,20.00
2018-08-20T00:13:56.663Z,20.00
2018-08-20T00:16:31.482Z,20.00
2018-08-20T00:19:06.380Z,19.80
2018-08-20T00:21:44.444Z,19.81
2018-08-20T00:24:19.523Z,19.64
2018-08-20T00:26:54.541Z,19.63
2018-08-20T00:29:30.104Z,19.63
2018-08-20T00:32:05.332Z,19.60
2018-08-20T00:34:42.449Z,19.66
2018-08-20T00:37:17.085Z,19.76
2018-08-20T00:39:51.824Z,19.76
2018-08-20T00:42:26.393Z,19.72
2018-08-20T00:45:00.844Z,19.63
2018-08-20T00:47:35.613Z,19.65
2018-08-20T00:50:10.623Z,19.66
2018-08-20T00:52:45.100Z,19.65
2018-08-20T00:55:20.321Z,19.65
2018-08-20T00:57:55.860Z,19.72
2018-08-20T01:00:30.281Z,19.68
2018-08-20T01:03:05.176Z,19.71
2018-08-20T01:05:39.605Z,19.76
2018-08-20T01:08:14.284Z,19.74
2018-08-20T01:10:49.849Z,19.75
2018-08-20T01:13:24.768Z,19.75
2018-08-20T01:15:59.376Z,19.81
2018-08-20T01:18:34.457Z,19.74
2018-08-20T01:21:08.840Z,19.68
2018-08-20T01:23:44.378Z,19.62
2018-08-20T01:26:19.337Z,19.61
2018-08-20T01:28:53.837Z,19.60
2018-08-20T01:31:28.368Z,19.60
2018-08-20T01:34:02.960Z,19.56
2018-08-20T01:36:37.412Z,19.55
2018-08-20T01:39:11.944Z,19.50
2018-08-20T01:41:46.241Z,19.50
2018-08-20T01:44:20.693Z,19.56
2018-08-20T01:46:55.747Z,19.63
2018-08-20T01:49:30.016Z,19.64
2018-08-20T01:52:05.621Z,19.65
2018-08-20T01:54:40.465Z,19.64
2018-08-20T01:57:14.900Z,19.68
2018-08-20T01:59:49.436Z,19.67
2018-08-20T02:02:24.712Z,19.68
2018-08-20T02:04:59.773Z,19.70
2018-08-20T02:07:34.471Z,19.72
2018-08-20T02:10:08.960Z,19.75
2018-08-20T02:12:43.660Z,19.86
2018-08-20T02:15:18.087Z,19.84
2018-08-20T02:17:52.838Z,19.92
2018-08-20T02:20:27.432Z,19.86
2018-08-20T02:23:02.843Z,19.95
2018-08-20T02:25:37.227Z,19.93
2018-08-20T02:28:12.413Z,19.89
2018-08-20T02:30:46.960Z,19.86
2018-08-20T02:33:21.401Z,19.83
2018-08-20T02:35:55.876Z,19.81
2018-08-20T02:38:30.650Z,19.85
2018-08-20T02:41:05.560Z,19.82
2018-08-20T02:43:40.369Z,19.80
2018-08-20T02:46:14.751Z,19.73
2018-08-20T02:48:50.584Z,19.70
2018-08-20T02:51:24.988Z,19.70
2018-08-20T02:54:00.013Z,19.66
2018-08-20T02:56:34.880Z,19.65
2018-08-20T02:59:09.275Z,19.58
2018-08-20T03:01:43.712Z,19.64
2018-08-20T03:04:18.186Z,19.50
2018-08-20T03:06:53.496Z,19.56
2018-08-20T03:09:28.547Z,19.56
2018-08-20T03:12:02.816Z,19.52
2018-08-20T03:14:37.413Z,19.51
2018-08-20T03:17:12.412Z,19.46
2018-08-20T03:19:47.309Z,19.46
2018-08-20T03:22:22.157Z,19.36
2018-08-20T03:24:56.514Z,19.38
2018-08-20T03:27:31.493Z,19.27
2018-08-20T03:30:06.934Z,19.27
2018-08-20T03:32:41.608Z,19.14
2018-08-20T03:35:16.444Z,19.13
2018-08-20T03:37:50.908Z,19.15
2018-08-20T03:40:25.380Z,19.14
2018-08-20T03:43:00.053Z,19.13
2018-08-20T03:45:34.728Z,19.15
2018-08-20T03:48:09.692Z,19.10
2018-08-20T03:50:44.040Z,19.05
2018-08-20T03:53:18.727Z,19.07
2018-08-20T03:55:53.181Z,18.97
2018-08-20T03:58:27.737Z,18.98
2018-08-20T04:01:02.789Z,18.93
2018-08-20T04:03:37.426Z,18.94
2018-08-20T04:06:11.979Z,18.86
2018-08-20T04:08:46.436Z,18.89
2018-08-20T04:11:20.984Z,18.91
2018-08-20T04:13:55.488Z,18.82
2018-08-20T04:16:29.935Z,18.82
2018-08-20T04:19:07.115Z,18.84
2018-08-20T04:21:41.517Z,18.84
2018-08-20T04:24:15.810Z,18.78
2018-08-20T04:26:51.311Z,18.79
2018-08-20T04:29:25.613Z,18.72
2018-08-20T04:32:00.613Z,18.73
2018-08-20T04:34:35.492Z,18.77
2018-08-20T04:37:10.820Z,18.79
2018-08-20T04:39:45.416Z,18.76
2018-08-20T04:42:20.284Z,18.81
2018-08-20T04:44:55.410Z,18.83
2018-08-20T04:47:29.913Z,18.83
2018-08-20T04:50:06.390Z,18.81
2018-08-20T04:52:41.552Z,18.87
2018-08-20T04:55:16.147Z,18.95
2018-08-20T04:57:51.257Z,19.06
2018-08-20T05:00:25.845Z,19.15
2018-08-20T05:03:00.660Z,19.10
2018-08-20T05:05:35.166Z,19.10
2018-08-20T05:08:09.772Z,19.19
2018-08-20T05:10:44.637Z,19.18
2018-08-20T05:13:19.193Z,19.25
2018-08-20T05:15:53.732Z,19.25
2018-08-20T05:18:28.728Z,19.34
2018-08-20T05:21:03.452Z,19.45
2018-08-20T05:23:37.976Z,19.46
2018-08-20T05:29:28.676Z,19.55
2018-08-20T05:32:05.453Z,19.55
2018-08-20T05:34:40.216Z,19.61
2018-08-20T05:37:14.890Z,19.66
2018-08-20T05:39:49.313Z,19.75
2018-08-20T05:42:23.764Z,19.74
2018-08-20T05:44:58.685Z,19.83
2018-08-20T05:47:33.176Z,19.87
2018-08-20T05:50:08.300Z,19.96
2018-08-20T05:52:47.390Z,20.03
2018-08-20T05:55:24.208Z,20.14
2018-08-20T05:57:58.700Z,20.12
2018-08-20T06:00:33.204Z,20.22
2018-08-20T06:03:07.619Z,20.23
2018-08-20T06:05:42.469Z,20.34
2018-08-20T06:08:17.088Z,20.40
2018-08-20T06:10:51.783Z,20.41
2018-08-20T06:13:26.529Z,20.38
2018-08-20T06:16:03.104Z,20.47
2018-08-20T06:18:37.841Z,20.51
2018-08-20T06:21:12.884Z,20.57
2018-08-20T06:23:47.959Z,20.61
2018-08-20T06:26:22.679Z,20.81
2018-08-20T06:28:57.790Z,20.82
2018-08-20T06:31:32.456Z,20.86
2018-08-20T06:34:07.500Z,20.99
2018-08-20T06:36:42.455Z,21.07
2018-08-20T06:39:18.004Z,21.14
2018-08-20T06:41:52.482Z,21.20
2018-08-20T06:44:26.825Z,21.33
2018-08-20T06:47:02.060Z,21.43
2018-08-20T06:49:37.077Z,21.66
2018-08-20T06:52:12.161Z,21.60
2018-08-20T06:54:46.829Z,21.67
2018-08-20T06:57:21.928Z,21.78
2018-08-20T06:59:56.424Z,21.87
2018-08-20T07:02:31.289Z,21.86
2018-08-20T07:05:06.217Z,21.86
2018-08-20T07:07:41.347Z,21.92
2018-08-20T07:10:15.758Z,21.99
2018-08-20T07:12:50.787Z,22.27
2018-08-20T07:15:25.414Z,22.22
2018-08-20T07:18:00.819Z,22.42
2018-08-20T07:20:35.512Z,22.60
2018-08-20T07:23:14.442Z,22.55
2018-08-20T07:25:50.329Z,22.74
2018-08-20T07:28:30.481Z,22.67
2018-08-20T07:31:04.949Z,22.77
2018-08-20T07:33:39.981Z,23.03
2018-08-20T07:36:14.573Z,23.07
2018-08-20T07:38:50.684Z,23.04
2018-08-20T07:41:25.895Z,23.14
2018-08-20T07:44:00.616Z,23.22
2018-08-20T07:46:35.366Z,23.29
2018-08-20T07:49:15.205Z,23.55
2018-08-20T07:51:50.855Z,23.70
2018-08-20T07:54:25.944Z,23.73
2018-08-20T07:57:01.117Z,23.83
2018-08-20T07:59:35.532Z,23.80
2018-08-20T08:02:10.020Z,23.89
2018-08-20T08:04:47.096Z,23.99
2018-08-20T08:07:23.920Z,23.98
2018-08-20T08:09:59.232Z,24.12
2018-08-20T08:12:33.699Z,24.18
2018-08-20T08:15:10.925Z,24.06
2018-08-20T08:17:46.807Z,24.12
2018-08-20T08:20:21.378Z,24.32
2018-08-20T08:22:56.236Z,24.49
2018-08-20T08:25:31.026Z,24.56
2018-08-20T08:28:05.956Z,24.65
2018-08-20T08:30:41.640Z,24.78
2018-08-20T08:33:16.522Z,24.94
2018-08-20T08:35:51.996Z,25.12
2018-08-20T08:38:26.349Z,25.50
2018-08-20T08:41:01.102Z,25.60
2018-08-20T08:43:35.648Z,25.82
2018-08-20T08:46:10.978Z,26.07
2018-08-20T08:48:45.931Z,26.28
2018-08-20T08:51:21.522Z,26.32
2018-08-20T08:53:56.282Z,26.66
2018-08-20T08:56:36.365Z,27.03
2018-08-20T08:59:11.097Z,27.33
2018-08-20T09:01:46.111Z,27.64
2018-08-20T09:04:20.667Z,27.87
2018-08-20T09:06:55.123Z,28.04
2018-08-20T09:09:29.508Z,28.14
2018-08-20T09:12:03.940Z,28.10
2018-08-20T09:14:40.888Z,28.27
2018-08-20T09:17:15.608Z,28.37
2018-08-20T09:19:50.629Z,28.43
2018-08-20T09:22:25.525Z,28.53
2018-08-20T09:25:00.252Z,28.53
2018-08-20T09:27:35.302Z,28.42
2018-08-20T09:30:16.918Z,28.51
2018-08-20T09:32:52.051Z,28.58
2018-08-20T09:35:26.962Z,28.77
2018-08-20T09:38:01.508Z,29.11
2018-08-20T09:40:36.732Z,29.31
2018-08-20T09:43:11.252Z,29.12
2018-08-20T09:45:46.051Z,29.09
2018-08-20T09:48:20.745Z,28.98
2018-08-20T09:50:55.475Z,29.25
2018-08-20T09:53:31.041Z,29.41
2018-08-20T09:56:05.878Z,29.45
2018-08-20T09:58:40.433Z,29.31
2018-08-20T10:01:15.180Z,29.60
2018-08-20T10:03:49.702Z,29.82
2018-08-20T10:06:24.674Z,29.78
2018-08-20T10:08:59.200Z,29.91
2018-08-20T10:11:33.837Z,29.69
2018-08-20T10:14:08.292Z,29.81
2018-08-20T10:16:42.972Z,29.57
2018-08-20T10:19:17.840Z,29.78
2018-08-20T10:21:52.712Z,29.94
2018-08-20T10:24:27.438Z,29.91
2018-08-20T10:27:02.180Z,30.24
2018-08-20T10:29:36.605Z,30.54
2018-08-20T10:32:11.541Z,30.25
2018-08-20T10:34:46.588Z,30.10
2018-08-20T10:37:21.347Z,30.25
2018-08-20T10:39:57.529Z,30.43
2018-08-20T10:42:32.492Z,30.83
2018-08-20T10:45:16.643Z,31.19
2018-08-20T10:47:51.320Z,31.07
2018-08-20T10:50:25.909Z,31.21
2018-08-20T10:53:01.334Z,31.06
2018-08-20T10:55:36.308Z,31.50
2018-08-20T10:58:12.271Z,31.49
2018-08-20T11:00:46.944Z,31.48
2018-08-20T11:03:21.802Z,31.61
2018-08-20T11:05:57.015Z,31.77
2018-08-20T11:08:32.928Z,31.73
2018-08-20T11:11:08.104Z,31.73
2018-08-20T11:13:43.001Z,31.76
2018-08-20T11:16:17.338Z,31.12
2018-08-20T11:18:51.946Z,31.44
2018-08-20T11:21:37.580Z,32.02
2018-08-20T11:24:12.258Z,32.33
2018-08-20T11:26:46.844Z,32.45
2018-08-20T11:29:21.335Z,32.52
2018-08-20T11:31:56.235Z,32.57
2018-08-20T11:34:31.487Z,32.38
2018-08-20T11:37:06.604Z,32.48
2018-08-20T11:39:41.380Z,32.71
2018-08-20T11:42:16.044Z,32.78
2018-08-20T11:44:50.468Z,32.72
2018-08-20T11:47:24.852Z,32.98
2018-08-20T11:50:00.736Z,33.15
2018-08-20T11:52:35.163Z,32.75
2018-08-20T11:55:09.756Z,32.60
2018-08-20T11:57:44.402Z,32.57
2018-08-20T12:00:19.468Z,32.46
2018-08-20T12:02:54.380Z,32.28
2018-08-20T12:05:29.447Z,32.07
2018-08-20T12:08:04.351Z,32.45
2018-08-20T12:10:39.279Z,32.79
2018-08-20T12:13:14.359Z,33.25
2018-08-20T12:15:48.852Z,33.41
2018-08-20T12:18:23.663Z,33.45
2018-08-20T12:20:58.008Z,33.78
2018-08-20T12:23:32.760Z,34.12
2018-08-20T12:26:07.608Z,34.15
2018-08-20T12:28:42.089Z,34.08
2018-08-20T12:31:16.413Z,33.56
2018-08-20T12:33:51.148Z,32.91
2018-08-20T12:36:25.932Z,33.12
2018-08-20T12:39:00.620Z,32.97
2018-08-20T12:41:35.583Z,33.39
2018-08-20T12:44:10.032Z,33.41
2018-08-20T12:46:44.908Z,33.24
2018-08-20T12:49:19.231Z,33.34
2018-08-20T12:51:54.600Z,33.24
2018-08-20T12:54:29.692Z,33.36
2018-08-20T12:57:04.971Z,33.83
2018-08-20T12:59:39.733Z,33.66
2018-08-20T13:02:14.233Z,33.57
2018-08-20T13:04:48.786Z,33.72
2018-08-20T13:07:23.721Z,33.87
2018-08-20T13:09:58.512Z,34.05
2018-08-20T13:12:33.096Z,33.55
2018-08-20T13:15:07.572Z,33.52
2018-08-20T13:17:41.932Z,33.36
2018-08-20T13:23:20.713Z,33.99
2018-08-20T13:25:55.415Z,34.01
2018-08-20T13:28:30.748Z,34.29
2018-08-20T13:31:05.176Z,34.29
2018-08-20T13:33:39.583Z,34.35
2018-08-20T13:36:14.419Z,34.23
2018-08-20T13:38:48.929Z,33.98
2018-08-20T13:41:23.689Z,33.51
2018-08-20T13:43:58.201Z,33.57
2018-08-20T13:46:32.855Z,33.45
2018-08-20T13:49:07.716Z,33.71
2018-08-20T13:51:42.230Z,34.14
2018-08-20T13:54:16.672Z,34.33
2018-08-20T13:56:51.309Z,34.06
2018-08-20T13:59:25.620Z,33.85
2018-08-20T14:02:01.015Z,34.18
2018-08-20T14:04:36.544Z,34.38
2018-08-20T14:07:10.946Z,34.57
2018-08-20T14:09:46.001Z,34.74
2018-08-20T14:12:20.660Z,34.60
2018-08-20T14:14:55.637Z,33.69
2018-08-20T14:17:30.122Z,33.52
2018-08-20T14:20:08.364Z,32.97
2018-08-20T14:22:44.008Z,32.84
2018-08-20T14:25:18.829Z,33.04
2018-08-20T14:27:53.860Z,33.40
2018-08-20T14:30:28.458Z,33.44
2018-08-20T14:33:02.966Z,33.14
2018-08-20T14:35:37.488Z,33.05
2018-08-20T14:38:12.119Z,33.53
2018-08-20T14:40:46.835Z,33.67
2018-08-20T14:43:21.720Z,34.02
2018-08-20T14:46:02.350Z,34.19
2018-08-20T14:48:36.981Z,33.44
2018-08-20T14:51:11.344Z,32.53
2018-08-20T14:53:45.852Z,31.79
2018-08-20T14:56:20.825Z,31.47
2018-08-20T14:58:55.824Z,31.64
2018-08-20T15:01:30.695Z,31.76
2018-08-20T15:04:05.199Z,31.92
2018-08-20T15:06:55.772Z,31.88
2018-08-20T15:09:30.980Z,31.95
2018-08-20T15:12:06.474Z,31.75
2018-08-20T15:14:41.552Z,31.62
2018-08-20T15:17:17.052Z,31.92
2018-08-20T15:19:51.704Z,32.35
2018-08-20T15:22:26.504Z,32.60
2018-08-20T15:25:01.237Z,32.78
2018-08-20T15:27:35.728Z,32.88
2018-08-20T15:30:10.701Z,32.82
2018-08-20T15:32:45.765Z,32.31
2018-08-20T15:35:21.840Z,31.88
2018-08-20T15:37:56.298Z,31.33
2018-08-20T15:40:31.023Z,30.91
2018-08-20T15:43:05.340Z,31.22
2018-08-20T15:45:40.085Z,31.59
2018-08-20T15:48:14.979Z,31.93
2018-08-20T15:50:49.986Z,31.72
2018-08-20T15:53:24.733Z,31.37
2018-08-20T15:55:59.082Z,31.46
2018-08-20T15:58:33.629Z,31.44
2018-08-20T16:01:08.268Z,31.53
2018-08-20T16:03:42.778Z,31.40
2018-08-20T16:06:17.457Z,30.87
2018-08-20T16:08:51.809Z,30.39
2018-08-20T16:11:26.240Z,30.19
2018-08-20T16:14:00.616Z,30.53
2018-08-20T16:16:35.352Z,30.59
2018-08-20T16:19:10.414Z,30.77
2018-08-20T16:21:44.967Z,30.91
2018-08-20T16:24:19.454Z,30.95
2018-08-20T16:26:54.107Z,30.99
2018-08-20T16:29:28.628Z,31.13
2018-08-20T16:32:03.752Z,31.12
2018-08-20T16:34:38.295Z,30.98
2018-08-20T16:37:13.393Z,30.97
2018-08-20T16:39:48.584Z,30.72
2018-08-20T16:42:22.896Z,30.72
2018-08-20T16:44:57.425Z,30.69
2018-08-20T16:47:32.253Z,30.54
2018-08-20T16:50:08.791Z,30.43
2018-08-20T16:52:43.461Z,30.33
2018-08-20T16:55:17.838Z,30.13
2018-08-20T16:57:52.683Z,30.05
2018-08-20T17:00:27.263Z,29.99
2018-08-20T17:03:01.608Z,29.77
2018-08-20T17:05:41.565Z,29.50
2018-08-20T17:08:25.020Z,29.36
2018-08-20T17:11:00.096Z,29.27
2018-08-20T17:13:34.956Z,29.15
2018-08-20T17:16:10.481Z,29.11
2018-08-20T17:18:45.252Z,29.06
2018-08-20T17:21:19.596Z,29.01
2018-08-20T17:23:54.161Z,29.10
2018-08-20T17:26:28.933Z,28.93
2018-08-20T17:29:08.892Z,28.76
2018-08-20T17:31:44.156Z,28.74
2018-08-20T17:34:18.502Z,28.64
2018-08-20T17:36:53.800Z,28.40
2018-08-20T17:39:28.165Z,28.24
2018-08-20T17:42:02.786Z,28.14
2018-08-20T17:44:37.446Z,28.09
2018-08-20T17:47:16.325Z,27.88
2018-08-20T17:49:51.660Z,27.75
2018-08-20T17:52:33.100Z,27.62
2018-08-20T17:55:07.793Z,27.50
2018-08-20T17:57:42.773Z,27.37
2018-08-20T18:00:22.994Z,27.27
2018-08-20T18:02:57.379Z,27.17
2018-08-20T18:05:31.784Z,27.05
2018-08-20T18:08:06.584Z,26.92
2018-08-20T18:10:41.357Z,26.86
2018-08-20T18:13:30.077Z,26.74
2018-08-20T18:16:06.942Z,26.64
2018-08-20T18:18:43.732Z,26.50
2018-08-20T18:21:18.410Z,26.40
2018-08-20T18:23:52.836Z,26.30
2018-08-20T18:26:32.436Z,26.18
2018-08-20T18:29:09.342Z,26.12
2018-08-20T18:31:43.795Z,25.99
2018-08-20T18:34:18.827Z,25.87
2018-08-20T18:36:53.893Z,25.74
2018-08-20T18:39:28.869Z,25.65
2018-08-20T18:42:10.630Z,25.51
2018-08-20T18:44:47.163Z,25.34
2018-08-20T18:47:21.483Z,25.25
2018-08-20T18:49:57.167Z,25.16
2018-08-20T18:52:32.776Z,25.03
2018-08-20T18:55:07.217Z,24.93
2018-08-20T18:57:41.535Z,24.90
2018-08-20T19:00:16.352Z,24.79
2018-08-20T19:02:54.356Z,24.69
2018-08-20T19:05:33.047Z,24.64
2018-08-20T19:08:11.696Z,24.60
2018-08-20T19:10:47.973Z,24.55
2018-08-20T19:13:22.397Z,24.51
2018-08-20T19:15:57.107Z,24.48
2018-08-20T19:18:36.088Z,24.46
2018-08-20T19:21:15.730Z,24.39
2018-08-20T19:23:50.597Z,24.33
2018-08-20T19:26:25.434Z,24.25
2018-08-20T19:29:28.325Z,24.24
2018-08-20T19:32:02.837Z,24.07
2018-08-20T19:34:37.876Z,23.98
2018-08-20T19:37:12.938Z,23.95
2018-08-20T19:39:47.869Z,23.89
2018-08-20T19:42:28.060Z,23.91
2018-08-20T19:45:03.719Z,23.83
2018-08-20T19:47:37.996Z,23.77
2018-08-20T19:50:13.507Z,23.65
2018-08-20T19:52:48.101Z,23.55
2018-08-20T19:55:22.440Z,23.46
2018-08-20T19:57:57.178Z,23.37
2018-08-20T20:00:32.114Z,23.29
2018-08-20T20:03:06.546Z,23.19
2018-08-20T20:05:41.063Z,23.10
2018-08-20T20:08:16.037Z,23.01
2018-08-20T20:10:50.515Z,22.93
2018-08-20T20:13:24.949Z,22.84
2018-08-20T20:16:01.204Z,22.81
2018-08-20T20:18:35.908Z,22.82
2018-08-20T20:21:10.716Z,22.74
2018-08-20T20:23:45.151Z,22.69
2018-08-20T20:26:19.870Z,22.68
2018-08-20T20:28:54.568Z,22.62
2018-08-20T20:31:28.993Z,22.58
2018-08-20T20:34:03.397Z,22.51
2018-08-20T20:36:38.172Z,22.45
2018-08-20T20:39:13.229Z,22.43
2018-08-20T20:41:47.644Z,22.36
2018-08-20T20:44:22.083Z,22.32
2018-08-20T20:46:56.986Z,22.28
2018-08-20T20:49:31.751Z,22.21
2018-08-20T20:52:06.990Z,22.16
2018-08-20T20:54:41.344Z,22.06
2018-08-20T20:57:16.354Z,22.04
2018-08-20T20:59:50.708Z,22.05
2018-08-20T21:02:25.327Z,22.03
2018-08-20T21:05:04.965Z,21.97
2018-08-20T21:07:39.861Z,21.89
2018-08-20T21:10:14.449Z,21.86
2018-08-20T21:12:49.472Z,21.80
2018-08-20T21:15:24.243Z,21.76
2018-08-20T21:17:58.696Z,21.73
2018-08-20T21:20:33.416Z,21.66
2018-08-20T21:23:08.353Z,21.62
2018-08-20T21:25:43.127Z,21.54
2018-08-20T21:28:17.604Z,21.50
2018-08-20T21:30:52.157Z,21.44
2018-08-20T21:33:27.168Z,21.40
2018-08-20T21:36:02.202Z,21.33
2018-08-20T21:38:36.716Z,21.29
2018-08-20T21:41:11.169Z,21.30
2018-08-20T21:43:47.023Z,21.35
2018-08-20T21:46:21.794Z,21.30
2018-08-20T21:48:56.723Z,21.24
2018-08-20T21:51:36.481Z,21.17
2018-08-20T21:54:10.986Z,21.07
2018-08-20T21:56:52.185Z,20.99
2018-08-20T21:59:26.848Z,20.90
2018-08-20T22:02:01.432Z,20.89
2018-08-20T22:04:35.964Z,20.87
2018-08-20T22:07:10.504Z,20.97
2018-08-20T22:09:44.848Z,20.86
2018-08-20T22:12:19.524Z,20.87
2018-08-20T22:14:54.360Z,20.82
2018-08-20T22:17:30.668Z,20.77
2018-08-20T22:20:07.020Z,20.81
2018-08-20T22:22:41.690Z,20.72
2018-08-20T22:25:16.984Z,20.69
2018-08-20T22:27:55.830Z,20.63
2018-08-20T22:30:30.836Z,20.58
2018-08-20T22:33:05.693Z,20.56
2018-08-20T22:35:40.031Z,20.49
2018-08-20T22:38:15.141Z,20.43
2018-08-20T22:40:49.775Z,20.38
2018-08-20T22:43:24.455Z,20.39
2018-08-20T22:45:59.057Z,20.35
2018-08-20T22:48:34.738Z,20.32
2018-08-20T22:51:14.609Z,20.26
2018-08-20T22:53:51.541Z,20.22
2018-08-20T22:56:31.574Z,20.18
2018-08-20T22:59:07.284Z,20.15
2018-08-20T23:01:41.571Z,20.08
2018-08-20T23:04:16.486Z,20.04
2018-08-20T23:06:50.821Z,19.99
2018-08-20T23:09:28.988Z,19.94
2018-08-20T23:12:03.573Z,19.91
2018-08-20T23:14:38.128Z,19.87
2018-08-20T23:17:12.894Z,19.87
2018-08-20T23:19:48.776Z,19.82
2018-08-20T23:22:23.444Z,19.83
2018-08-20T23:24:58.744Z,19.80
2018-08-20T23:27:39.073Z,19.72
2018-08-20T23:30:14.851Z,19.63
2018-08-20T23:32:49.976Z,19.52
2018-08-20T23:35:24.461Z,19.45
2018-08-20T23:37:59.037Z,19.36
2018-08-20T23:40:33.954Z,19.33
2018-08-20T23:43:08.376Z,19.31
2018-08-20T23:45:43.544Z,19.28
2018-08-20T23:48:18.056Z,19.22
2018-08-20T23:50:57.456Z,19.15
2018-08-20T23:53:31.749Z,19.10
2018-08-20T23:56:06.176Z,19.10
2018-08-20T23:58:40.840Z,19.14
